Time;durP1;ratioP1;P1;durP2;ratioP2;P2;SDS_P1;SDS_P2;PMS_P1;PMS_P2;Temp;Humidity;BMP_temperature;BMP_pressure;BME280_temperature;BME280_humidity;BME280_pressure;Samples;Min_cycle;Max_cycle;Signal;HPM_P1;HPM_P2
2020/12/15 00:00:41;;;;;;;92.85;30.55;;;;;;;-0.70;92.47;101215.16;1780618;80;21197;-37
2020/12/15 00:03:10;;;;;;;84.45;30.32;;;;;;;-0.71;92.50;101218.94;1780670;80;21062;-35
2020/12/15 00:05:39;;;;;;;78.60;29.15;;;;;;;-0.74;92.55;101220.55;1780611;80;22248;-38
2020/12/15 00:08:06;;;;;;;84.77;31.20;;;;;;;-0.75;92.56;101221.75;1780599;80;21025;-37
2020/12/15 00:10:37;;;;;;;90.67;31.77;;;;;;;-0.75;92.50;101225.56;1779433;80;20990;-36
2020/12/15 00:13:05;;;;;;;107.25;33.53;;;;;;;-0.77;92.54;101233.11;1780597;80;21351;-36
2020/12/15 00:15:33;;;;;;;85.10;30.88;;;;;;;-0.77;92.61;101230.99;1780338;80;21002;-36
2020/12/15 00:18:01;;;;;;;91.30;31.50;;;;;;;-0.76;92.63;101231.45;1780557;80;20939;-37
2020/12/15 00:20:30;;;;;;;86.37;31.27;;;;;;;-0.75;92.61;101239.16;1780590;80;21031;-36
2020/12/15 00:22:59;;;;;;;85.28;30.08;;;;;;;-0.77;92.61;101243.70;1780624;80;20913;-36
2020/12/15 00:25:27;;;;;;;94.25;31.40;;;;;;;-0.80;92.67;101244.44;1780715;80;22171;-35
2020/12/15 00:27:55;;;;;;;87.05;29.67;;;;;;;-0.78;92.68;101246.63;1780490;80;20976;-36
2020/12/15 00:30:25;;;;;;;65.52;25.32;;;;;;;-0.77;92.67;101252.61;1780598;80;20999;-36
2020/12/15 00:32:53;;;;;;;61.35;23.22;;;;;;;-0.79;92.67;101251.67;1780672;80;21585;-35
2020/12/15 00:35:22;;;;;;;72.72;28.60;;;;;;;-0.82;92.71;101254.95;1780563;80;21509;-37
2020/12/15 00:37:50;;;;;;;73.72;28.12;;;;;;;-0.85;92.76;101255.25;1780528;80;21357;-35
2020/12/15 00:40:18;;;;;;;63.63;26.35;;;;;;;-0.82;92.72;101255.37;1780584;80;21026;-36
2020/12/15 00:42:46;;;;;;;96.80;31.65;;;;;;;-0.87;92.71;101256.05;1780596;80;20995;-35
2020/12/15 00:45:14;;;;;;;54.15;21.33;;;;;;;-0.90;92.82;101255.05;1780544;80;21011;-35
2020/12/15 00:47:42;;;;;;;79.30;29.67;;;;;;;-0.90;92.87;101258.86;1780587;80;20979;-35
2020/12/15 00:50:12;;;;;;;63.15;25.95;;;;;;;-0.90;92.87;101260.98;1780688;80;21142;-36
2020/12/15 00:52:40;;;;;;;67.70;26.37;;;;;;;-0.91;92.91;101257.97;1780582;80;21046;-37
2020/12/15 00:55:09;;;;;;;70.95;30.77;;;;;;;-0.92;92.97;101265.14;1752303;80;21050;-36
2020/12/15 00:57:37;;;;;;;77.37;29.72;;;;;;;-0.90;92.96;101258.44;1780453;80;22064;-36
2020/12/15 01:00:10;;;;;;;75.62;29.72;;;;;;;-0.89;92.99;101263.98;1780599;80;21254;-37
2020/12/15 01:02:39;;;;;;;72.70;27.50;;;;;;;-0.88;92.98;101263.22;1780838;80;22847;-35
2020/12/15 01:05:07;;;;;;;74.92;29.05;;;;;;;-0.89;93.03;101263.98;1780660;80;21006;-36
2020/12/15 01:07:35;;;;;;;79.07;31.12;;;;;;;-0.88;92.99;101258.52;1780635;80;21002;-38
2020/12/15 01:10:05;;;;;;;87.70;31.62;;;;;;;-0.86;92.97;101261.98;1780761;80;21030;-36
2020/12/15 01:12:34;;;;;;;96.50;32.42;;;;;;;-0.85;92.97;101257.37;1780859;80;21006;-35
2020/12/15 01:15:07;;;;;;;86.22;31.90;;;;;;;-0.83;93.01;101256.17;1780592;80;21422;-37
2020/12/15 01:17:35;;;;;;;76.28;31.75;;;;;;;-0.83;93.02;101256.17;1780612;80;20940;-38
2020/12/15 01:20:03;;;;;;;90.60;32.35;;;;;;;-0.81;92.97;101255.83;1780813;80;21489;-36
2020/12/15 01:22:31;;;;;;;78.40;29.72;;;;;;;-0.82;92.99;101252.41;1780743;80;20903;-35
2020/12/15 01:25:02;;;;;;;70.28;28.32;;;;;;;-0.82;93.01;101252.83;1780839;80;21058;-36
2020/12/15 01:27:35;;;;;;;72.70;29.72;;;;;;;-0.82;93.04;101254.09;1779922;80;21172;-36
2020/12/15 01:30:04;;;;;;;79.30;31.55;;;;;;;-0.82;92.98;101249.86;1780311;80;21061;-37
2020/12/15 01:32:51;;;;;;;89.47;30.77;;;;;;;-0.82;93.03;101255.37;1780689;80;20939;-36
2020/12/15 01:35:21;;;;;;;78.15;31.60;;;;;;;-0.85;93.08;101251.43;1780599;80;20924;-36
2020/12/15 01:37:50;;;;;;;72.90;31.05;;;;;;;-0.83;93.08;101254.91;1780841;80;21505;-37
2020/12/15 01:40:19;;;;;;;94.00;34.18;;;;;;;-0.81;93.07;101255.83;1780277;80;21370;-36
2020/12/15 01:42:47;;;;;;;81.78;29.45;;;;;;;-0.81;93.08;101254.14;1780721;80;20951;-36
2020/12/15 01:45:15;;;;;;;80.25;30.62;;;;;;;-0.81;93.11;101253.29;1780653;80;20995;-36
2020/12/15 01:47:44;;;;;;;79.90;31.75;;;;;;;-0.82;93.10;101257.49;1780747;80;21054;-37
2020/12/15 01:50:12;;;;;;;82.85;30.82;;;;;;;-0.82;93.10;101258.77;1780748;80;21014;-36
2020/12/15 01:52:42;;;;;;;76.70;29.52;;;;;;;-0.82;93.07;101260.03;1780827;80;21277;-37
2020/12/15 01:55:11;;;;;;;84.42;30.27;;;;;;;-0.81;93.12;101263.05;1780654;80;21201;-36
2020/12/15 01:57:43;;;;;;;74.92;29.92;;;;;;;-0.81;93.16;101264.73;1779164;80;20991;-36
2020/12/15 02:00:26;;;;;;;89.83;31.23;;;;;;;-0.81;93.14;101245.66;1779155;80;20979;-37
2020/12/15 02:02:56;;;;;;;88.95;30.32;;;;;;;-0.82;93.14;101247.32;1776097;80;20951;-36
2020/12/15 02:05:25;;;;;;;79.50;30.72;;;;;;;-0.82;93.19;101246.47;1778545;80;21372;-36
2020/12/15 02:07:54;;;;;;;88.45;31.70;;;;;;;-0.82;93.18;101249.02;1752860;80;20975;-36
2020/12/15 02:10:22;;;;;;;78.65;29.30;;;;;;;-0.80;93.17;101249.94;1780706;80;20932;-36
2020/12/15 02:13:01;;;;;;;83.27;30.32;;;;;;;-0.80;93.19;101245.70;1778206;80;20912;-36
2020/12/15 02:15:29;;;;;;;99.55;32.98;;;;;;;-0.79;93.20;101245.32;1752600;80;20979;-36
2020/12/15 02:17:59;;;;;;;92.95;32.75;;;;;;;-0.80;93.20;101243.16;1779635;80;21575;-36
2020/12/15 02:20:28;;;;;;;82.70;30.82;;;;;;;-0.78;93.19;101238.16;1772140;80;21453;-36
2020/12/15 02:22:58;;;;;;;91.17;30.25;;;;;;;-0.77;93.19;101242.44;1778660;80;20924;-35
2020/12/15 02:25:27;;;;;;;82.05;29.30;;;;;;;-0.78;93.21;101244.52;1780751;80;21549;-36
2020/12/15 02:27:56;;;;;;;85.32;31.55;;;;;;;-0.79;93.20;101242.36;1780717;80;20932;-36
2020/12/15 02:30:24;;;;;;;82.55;30.77;;;;;;;-0.78;93.16;101237.73;1780674;80;21536;-37
2020/12/15 02:32:52;;;;;;;85.65;33.30;;;;;;;-0.79;93.18;101236.00;1780706;80;21513;-36
2020/12/15 02:35:21;;;;;;;84.72;30.95;;;;;;;-0.79;93.25;101242.78;1780560;80;21002;-37
2020/12/15 02:37:49;;;;;;;89.47;31.87;;;;;;;-0.79;93.26;101237.69;1780683;80;22402;-35
2020/12/15 02:40:19;;;;;;;78.67;30.20;;;;;;;-0.79;93.21;101238.96;1780610;80;20935;-36
2020/12/15 02:43:01;;;;;;;74.87;30.00;;;;;;;-0.78;93.23;101235.61;1778948;80;22575;-35
2020/12/15 02:45:29;;;;;;;80.95;30.35;;;;;;;-0.79;93.25;101237.69;1780663;80;20975;-36
2020/12/15 02:47:58;;;;;;;85.57;32.10;;;;;;;-0.78;93.28;101245.36;1780616;80;20963;-37
2020/12/15 02:50:28;;;;;;;77.32;29.50;;;;;;;-0.77;93.23;101242.44;1780208;80;20942;-37
2020/12/15 02:52:58;;;;;;;80.45;31.10;;;;;;;-0.76;93.25;101243.78;1779040;80;20923;-36
2020/12/15 02:55:28;;;;;;;73.92;29.82;;;;;;;-0.75;93.24;101245.91;1780627;80;22694;-37
2020/12/15 02:57:56;;;;;;;81.57;33.92;;;;;;;-0.75;93.23;101243.36;1780552;80;21023;-36
2020/12/15 03:00:24;;;;;;;71.30;29.37;;;;;;;-0.74;93.22;101248.91;1780632;80;20940;-36
2020/12/15 03:02:54;;;;;;;86.75;31.33;;;;;;;-0.74;93.23;101247.64;1780671;80;21517;-37
2020/12/15 03:05:23;;;;;;;71.70;29.00;;;;;;;-0.75;93.26;101245.52;1777336;80;21022;-35
2020/12/15 03:07:52;;;;;;;73.72;30.00;;;;;;;-0.73;93.25;101243.91;1780585;80;21350;-35
2020/12/15 03:10:20;;;;;;;77.62;28.85;;;;;;;-0.71;93.22;101245.22;1780621;80;21058;-35
2020/12/15 03:12:49;;;;;;;65.20;27.02;;;;;;;-0.73;93.18;101246.83;1780623;80;20888;-37
2020/12/15 03:15:18;;;;;;;88.47;33.15;;;;;;;-0.76;93.23;101242.90;1780659;80;20888;-36
2020/12/15 03:17:47;;;;;;;75.05;30.35;;;;;;;-0.76;93.25;101244.17;1780637;80;20955;-34
2020/12/15 03:20:16;;;;;;;72.50;29.00;;;;;;;-0.75;93.22;101244.63;1780668;80;21470;-37
2020/12/15 03:22:45;;;;;;;85.83;33.40;;;;;;;-0.76;93.21;101244.17;1780635;80;21517;-36
2020/12/15 03:25:19;;;;;;;77.82;28.83;;;;;;;-0.78;93.24;101248.33;1780566;80;21027;-35
2020/12/15 03:27:47;;;;;;;79.67;31.55;;;;;;;-0.77;93.25;101256.42;1780598;80;21014;-36
2020/12/15 03:30:17;;;;;;;78.75;30.68;;;;;;;-0.78;93.21;101254.69;1779553;80;21010;-36
2020/12/15 03:32:45;;;;;;;69.70;27.13;;;;;;;-0.79;93.21;101264.39;1780726;80;22248;-35
2020/12/15 03:35:14;;;;;;;74.55;29.42;;;;;;;-0.84;93.26;101259.10;1780519;80;20995;-37
2020/12/15 03:37:42;;;;;;;77.10;31.57;;;;;;;-0.85;93.26;101259.06;1780686;80;20995;-35
2020/12/15 03:40:11;;;;;;;79.35;31.33;;;;;;;-0.83;93.28;101263.80;1780667;80;21043;-36
2020/12/15 03:42:58;;;;;;;79.65;30.20;;;;;;;-0.82;93.31;101262.58;1780602;80;20920;-37
2020/12/15 03:45:29;;;;;;;87.65;32.38;;;;;;;-0.80;93.32;101267.73;1779783;80;21369;-36
2020/12/15 03:47:58;;;;;;;87.00;33.92;;;;;;;-0.81;93.32;101264.73;1752241;80;20928;-36
2020/12/15 03:50:28;;;;;;;78.40;31.85;;;;;;;-0.81;93.30;101269.81;1780573;80;20924;-36
2020/12/15 03:52:56;;;;;;;87.75;32.75;;;;;;;-0.81;93.28;101277.45;1752190;80;21121;-36
2020/12/15 03:55:25;;;;;;;75.57;29.07;;;;;;;-0.81;93.29;101281.27;1779408;80;20952;-35
2020/12/15 03:57:58;;;;;;;73.07;27.90;;;;;;;-0.81;93.32;101281.27;1779671;80;21379;-36
2020/12/15 04:00:34;;;;;;;90.15;32.93;;;;;;;-0.81;93.27;101288.89;1778645;80;21497;-36
2020/12/15 04:03:03;;;;;;;68.57;27.87;;;;;;;-0.84;93.29;101286.22;1779656;80;20986;-37
2020/12/15 04:05:36;;;;;;;55.67;22.00;;;;;;;-0.85;93.33;101295.92;1778867;80;20951;-36
2020/12/15 04:08:04;;;;;;;58.50;23.35;;;;;;;-0.86;93.31;101298.86;1752218;80;21545;-36
2020/12/15 04:10:33;;;;;;;74.75;30.15;;;;;;;-0.87;93.30;101298.00;1780596;80;21299;-36
2020/12/15 04:13:01;;;;;;;89.92;32.85;;;;;;;-0.88;93.29;101301.73;1780520;80;21018;-38
2020/12/15 04:15:31;;;;;;;78.37;32.05;;;;;;;-0.91;93.32;101300.34;1779883;80;20994;-36
2020/12/15 04:18:01;;;;;;;59.50;21.23;;;;;;;-0.90;93.41;101308.02;1775422;80;20920;-36
2020/12/15 04:20:31;;;;;;;56.15;23.80;;;;;;;-0.89;93.44;101314.84;1753035;80;20931;-38
2020/12/15 04:23:00;;;;;;;62.80;26.68;;;;;;;-0.88;93.38;101319.53;1774908;80;21153;-37
2020/12/15 04:25:29;;;;;;;55.08;22.93;;;;;;;-0.89;93.38;101321.19;1774769;80;20939;-35
2020/12/15 04:27:58;;;;;;;79.90;29.82;;;;;;;-0.92;93.39;101326.16;1774772;80;20920;-36
2020/12/15 04:30:26;;;;;;;70.57;29.07;;;;;;;-0.93;93.43;101329.50;1774782;80;21031;-36
2020/12/15 04:32:56;;;;;;;72.75;28.98;;;;;;;-0.91;93.45;101331.70;1774830;80;20999;-35
2020/12/15 04:35:26;;;;;;;78.17;31.30;;;;;;;-0.89;93.42;101331.78;1773413;80;21438;-34
2020/12/15 04:37:55;;;;;;;73.87;30.23;;;;;;;-0.88;93.44;101335.67;1774929;80;20943;-35
2020/12/15 04:40:23;;;;;;;76.02;30.27;;;;;;;-0.87;93.46;101333.98;1774993;80;20939;-35
2020/12/15 04:42:53;;;;;;;80.42;31.87;;;;;;;-0.87;93.43;101336.14;1752657;80;20979;-36
2020/12/15 04:45:22;;;;;;;86.02;31.68;;;;;;;-0.86;93.39;101333.18;1774953;80;20912;-35
2020/12/15 04:47:54;;;;;;;87.67;32.90;;;;;;;-0.85;93.41;101340.42;1753679;80;22161;-36
2020/12/15 04:50:24;;;;;;;95.62;32.95;;;;;;;-0.83;93.44;101348.98;1773012;80;21042;-35
2020/12/15 04:53:10;;;;;;;99.90;36.68;;;;;;;-0.77;93.46;101345.00;1812674;77;23241;-37
2020/12/15 04:55:59;;;;;;;98.42;36.03;;;;;;;-0.76;93.41;101350.97;1784076;80;21066;-35
2020/12/15 04:58:29;;;;;;;93.92;33.08;;;;;;;-0.76;93.40;101356.05;1784124;80;22675;-34
2020/12/15 05:00:58;;;;;;;102.05;35.73;;;;;;;-0.76;93.43;101353.52;1702024;80;21007;-34
2020/12/15 05:03:28;;;;;;;92.88;34.10;;;;;;;-0.74;93.41;101354.45;1782945;80;20994;-35
2020/12/15 05:05:56;;;;;;;92.15;34.03;;;;;;;-0.73;93.34;101362.16;1754164;80;20983;-36
2020/12/15 05:08:24;;;;;;;83.15;32.98;;;;;;;-0.73;93.34;101366.36;1754215;80;20966;-36
2020/12/15 05:10:54;;;;;;;100.25;35.35;;;;;;;-0.75;93.37;101367.58;1783307;80;21363;-36
2020/12/15 05:13:41;;;;;;;94.20;33.08;;;;;;;-0.76;93.37;101371.31;1784070;80;20995;-34
2020/12/15 05:16:10;;;;;;;90.95;33.73;;;;;;;-0.76;93.36;101378.94;1784159;80;21014;-35
2020/12/15 05:18:40;;;;;;;83.33;29.72;;;;;;;-0.77;93.36;101384.83;1782537;80;21015;-35
2020/12/15 05:21:16;;;;;;;104.55;35.30;;;;;;;-0.77;93.37;101388.65;1752369;80;21038;-34
2020/12/15 05:23:51;;;;;;;88.97;30.12;;;;;;;-0.78;93.39;101381.83;1783757;80;21376;-35
2020/12/15 05:26:25;;;;;;;105.85;35.48;;;;;;;-0.77;93.37;101384.83;1784190;80;20938;-36
2020/12/15 05:29:05;;;;;;;92.92;32.53;;;;;;;-0.77;93.35;101379.75;1752175;80;20919;-35
2020/12/15 05:31:40;;;;;;;116.45;36.90;;;;;;;-0.78;93.40;101376.32;1784028;80;20986;-37
2020/12/15 05:34:27;;;;;;;107.47;37.53;;;;;;;-0.78;93.39;101374.20;1784044;80;20928;-36
2020/12/15 05:37:13;;;;;;;106.12;36.53;;;;;;;-0.77;93.37;101378.48;1766003;81;21361;-36
2020/12/15 05:40:01;;;;;;;91.15;31.62;;;;;;;-0.76;93.39;101376.02;1812564;77;22753;-35
2020/12/15 05:42:32;;;;;;;115.37;38.53;;;;;;;-0.80;93.38;101381.74;1782685;80;20920;-35
2020/12/15 05:45:00;;;;;;;111.37;37.05;;;;;;;-0.78;93.41;101384.37;1754210;80;22632;-35
2020/12/15 05:47:29;;;;;;;87.92;31.17;;;;;;;-0.78;93.43;101396.66;1753719;80;20915;-35
2020/12/15 05:50:01;;;;;;;89.65;30.85;;;;;;;-0.78;93.37;101397.08;1755174;80;21030;-36
2020/12/15 05:52:30;;;;;;;92.97;33.70;;;;;;;-0.81;93.41;101394.41;1784192;80;20868;-38
2020/12/15 05:55:08;;;;;;;100.55;32.60;;;;;;;-0.80;93.45;101399.96;1784103;80;20927;-35
2020/12/15 05:57:36;;;;;;;98.45;33.33;;;;;;;-0.80;93.46;101407.59;1784177;80;21194;-35
2020/12/15 06:00:11;;;;;;;74.92;27.10;;;;;;;-0.79;93.45;101408.05;1784036;80;21045;-35
2020/12/15 06:02:41;;;;;;;94.42;33.98;;;;;;;-0.81;93.48;101414.33;1784190;80;20986;-35
2020/12/15 06:05:09;;;;;;;81.55;30.82;;;;;;;-0.82;93.52;101411.74;1783983;80;21054;-35
2020/12/15 06:07:38;;;;;;;96.72;34.20;;;;;;;-0.80;93.56;101408.86;1784174;80;20967;-36
2020/12/15 06:10:06;;;;;;;72.15;27.22;;;;;;;-0.78;93.57;101409.80;1784047;80;21437;-35
2020/12/15 06:12:34;;;;;;;70.40;26.40;;;;;;;-0.75;93.55;101412.47;1784036;80;20994;-36
2020/12/15 06:15:03;;;;;;;75.30;29.57;;;;;;;-0.77;93.54;101412.80;1783971;80;20876;-35
2020/12/15 06:17:31;;;;;;;59.48;22.70;;;;;;;-0.78;93.56;101417.42;1784123;80;20923;-35
2020/12/15 06:20:00;;;;;;;65.35;25.55;;;;;;;-0.76;93.58;101415.81;1784067;80;21425;-37
2020/12/15 06:22:28;;;;;;;65.72;25.77;;;;;;;-0.77;93.55;101418.74;1784085;80;21528;-36
2020/12/15 06:24:58;;;;;;;76.77;28.77;;;;;;;-0.77;93.58;101415.34;1783980;80;20982;-37
2020/12/15 06:27:35;;;;;;;73.12;29.35;;;;;;;-0.78;93.58;101416.16;1784088;80;20990;-36
2020/12/15 06:30:04;;;;;;;70.45;28.55;;;;;;;-0.75;93.60;101420.98;1784013;79;21058;-36
2020/12/15 06:32:32;;;;;;;74.35;29.12;;;;;;;-0.74;93.60;101416.36;1784174;80;20959;-35
2020/12/15 06:35:11;;;;;;;68.35;28.42;;;;;;;-0.72;93.60;101429.13;1784021;80;21202;-36
2020/12/15 06:37:36;;;;;;;65.08;24.67;;;;;;;-0.71;93.60;101427.05;1783172;80;21554;-36
2020/12/15 06:40:05;;;;;;;59.93;24.87;;;;;;;-0.71;93.56;101430.86;1793199;80;21196;-35
2020/12/15 06:42:35;;;;;;;60.23;24.70;;;;;;;-0.69;93.58;101433.48;1793537;80;21025;-36
2020/12/15 06:45:07;;;;;;;68.80;27.20;;;;;;;-0.69;93.58;101443.24;1793426;80;21037;-36
2020/12/15 06:47:35;;;;;;;56.15;22.25;;;;;;;-0.68;93.57;101442.86;1793653;80;21504;-36
2020/12/15 06:50:14;;;;;;;63.58;27.25;;;;;;;-0.67;93.55;101447.99;1793180;80;21045;-34
2020/12/15 06:52:42;;;;;;;62.60;25.92;;;;;;;-0.69;93.57;101447.05;1793118;80;21517;-35
2020/12/15 06:55:10;;;;;;;59.25;24.47;;;;;;;-0.69;93.59;101448.33;1792998;80;21003;-36
2020/12/15 06:57:39;;;;;;;79.65;30.92;;;;;;;-0.68;93.65;101453.03;1793122;80;21050;-35
2020/12/15 07:00:11;;;;;;;69.80;29.20;;;;;;;-0.66;93.63;101445.06;1793089;80;21149;-36
2020/12/15 07:02:41;;;;;;;85.45;32.60;;;;;;;-0.61;93.60;101448.67;1793065;80;21002;-36
2020/12/15 07:05:25;;;;;;;76.45;30.32;;;;;;;-0.60;93.63;101448.75;1764772;80;21022;-36
2020/12/15 07:07:55;;;;;;;79.40;27.93;;;;;;;-0.57;93.63;101441.62;1793023;80;21037;-36
2020/12/15 07:10:28;;;;;;;80.22;29.18;;;;;;;-0.53;93.58;101452.82;1793111;80;21049;-36
2020/12/15 07:12:59;;;;;;;67.05;26.07;;;;;;;-0.52;93.55;101450.33;1793061;80;21423;-37
2020/12/15 07:15:28;;;;;;;68.22;26.68;;;;;;;-0.50;93.52;101455.11;1793152;80;21121;-35
2020/12/15 07:17:58;;;;;;;72.32;28.15;;;;;;;-0.50;93.55;101452.95;1793143;80;21469;-36
2020/12/15 07:20:26;;;;;;;75.62;30.32;;;;;;;-0.47;93.53;101453.96;1764379;80;20927;-36
2020/12/15 07:22:54;;;;;;;90.17;32.75;;;;;;;-0.43;93.50;101444.77;1793054;80;20994;-36
2020/12/15 07:25:23;;;;;;;58.02;23.00;;;;;;;-0.41;93.47;101446.97;1793118;80;22747;-35
2020/12/15 07:27:51;;;;;;;72.10;26.87;;;;;;;-0.40;93.43;101449.98;1792955;80;20931;-36
2020/12/15 07:30:21;;;;;;;72.97;28.32;;;;;;;-0.41;93.37;101453.33;1793087;80;20919;-35
2020/12/15 07:32:49;;;;;;;78.37;31.30;;;;;;;-0.41;93.37;101456.30;1792960;78;20935;-36
2020/12/15 07:35:24;;;;;;;76.70;29.27;;;;;;;-0.40;93.37;101459.30;1793060;80;21038;-35
2020/12/15 07:37:56;;;;;;;96.75;34.53;;;;;;;-0.37;93.41;101454.34;1792953;80;21337;-37
2020/12/15 07:40:28;;;;;;;84.22;32.03;;;;;;;-0.33;93.42;101456.20;1793037;80;21142;-36
2020/12/15 07:43:00;;;;;;;74.25;29.15;;;;;;;-0.26;93.38;101457.34;1793008;80;20963;-36
2020/12/15 07:45:30;;;;;;;68.07;26.50;;;;;;;-0.25;93.34;101455.27;1793114;80;21504;-36
2020/12/15 07:47:59;;;;;;;73.78;30.75;;;;;;;-0.27;93.26;101459.42;1793063;80;20907;-35
2020/12/15 07:50:28;;;;;;;72.78;28.75;;;;;;;-0.28;93.19;101456.41;1793009;80;21363;-35
2020/12/15 07:53:09;;;;;;;71.55;28.67;;;;;;;-0.27;93.20;101456.45;1792973;80;21188;-35
2020/12/15 07:55:37;;;;;;;68.52;28.30;;;;;;;-0.27;93.20;101458.15;1793072;80;20966;-35
2020/12/15 07:58:14;;;;;;;60.15;24.70;;;;;;;-0.25;93.23;101460.35;1792959;80;20967;-36
2020/12/15 08:00:42;;;;;;;72.00;28.17;;;;;;;-0.21;93.20;101462.22;1793061;80;21002;-36
2020/12/15 08:03:12;;;;;;;80.87;30.62;;;;;;;-0.20;93.07;101467.77;1793008;80;21262;-36
2020/12/15 08:05:41;;;;;;;68.95;30.02;;;;;;;-0.22;93.02;101475.75;1792962;80;21002;-35
2020/12/15 08:08:11;;;;;;;74.17;30.70;;;;;;;-0.24;93.01;101471.00;1792984;80;20939;-37
2020/12/15 08:10:40;;;;;;;68.15;25.95;;;;;;;-0.23;92.98;101476.55;1793064;80;21497;-35
2020/12/15 08:13:09;;;;;;;58.28;23.90;;;;;;;-0.20;92.92;101475.41;1793084;80;21042;-36
2020/12/15 08:15:40;;;;;;;64.47;27.17;;;;;;;-0.23;92.82;101481.65;1793022;80;22647;-35
2020/12/15 08:18:10;;;;;;;68.90;26.75;;;;;;;-0.27;92.75;101474.69;1792964;80;21042;-37
2020/12/15 08:20:41;;;;;;;67.87;28.23;;;;;;;-0.26;92.73;101472.61;1793038;80;20978;-36
2020/12/15 08:23:12;;;;;;;71.97;29.67;;;;;;;-0.24;92.75;101472.27;1764962;80;21057;-35
2020/12/15 08:25:43;;;;;;;64.82;27.27;;;;;;;-0.22;92.76;101465.19;1793103;80;20967;-36
2020/12/15 08:28:20;;;;;;;78.40;30.25;;;;;;;-0.20;92.76;101473.75;1792946;80;21336;-36
2020/12/15 08:33:42;;;;;;;66.57;26.25;;;;;;;-0.15;92.50;101468.83;1816085;79;22677;-35
2020/12/15 08:36:11;;;;;;;88.65;33.45;;;;;;;-0.20;92.49;101479.23;1789319;80;20986;-36
2020/12/15 08:38:43;;;;;;;73.12;28.87;;;;;;;-0.21;92.46;101477.48;1789299;80;21375;-34
2020/12/15 08:41:15;;;;;;;81.65;30.05;;;;;;;-0.14;92.44;101474.39;1789140;80;20982;-36
2020/12/15 08:43:48;;;;;;;77.37;28.67;;;;;;;-0.12;92.39;101474.46;1789284;80;20943;-36
2020/12/15 08:46:19;;;;;;;78.70;28.35;;;;;;;-0.10;92.38;101479.21;1789300;80;20979;-36
2020/12/15 08:48:48;;;;;;;71.50;28.75;;;;;;;-0.09;92.27;101484.38;1789229;80;20982;-35
2020/12/15 08:51:16;;;;;;;84.75;33.48;;;;;;;-0.10;92.10;101483.92;1789317;80;21262;-35
2020/12/15 08:53:45;;;;;;;80.53;31.02;;;;;;;-0.12;92.01;101480.44;1789160;80;20911;-36
2020/12/15 08:56:15;;;;;;;73.83;28.10;;;;;;;-0.12;92.05;101477.89;1789283;80;20978;-36
2020/12/15 08:58:43;;;;;;;81.97;32.20;;;;;;;-0.09;92.02;101476.75;1789203;80;20987;-37
2020/12/15 09:01:11;;;;;;;79.07;30.32;;;;;;;-0.06;91.98;101487.05;1789199;80;21025;-36
2020/12/15 09:03:45;;;;;;;63.98;27.20;;;;;;;-0.03;91.99;101488.45;1789210;80;21368;-36
2020/12/15 09:06:13;;;;;;;68.67;30.17;;;;;;;-0.02;91.88;101488.91;1789282;80;21113;-35
2020/12/15 09:08:48;;;;;;;59.23;27.58;;;;;;;-0.01;91.75;101485.56;1758829;80;20892;-35
2020/12/15 09:11:17;;;;;;;76.62;32.65;;;;;;;0.04;91.75;101484.87;1789295;80;20967;-36
2020/12/15 09:14:00;;;;;;;61.00;26.62;;;;;;;0.03;91.62;101478.05;1789277;80;21006;-36
2020/12/15 09:16:34;;;;;;;52.53;24.23;;;;;;;0.09;91.65;101477.02;1785348;80;21160;-35
2020/12/15 09:19:21;;;;;;;49.93;23.20;;;;;;;0.13;91.56;101479.77;1789130;80;20963;-36
2020/12/15 09:21:59;;;;;;;59.85;24.52;;;;;;;0.15;91.42;101478.56;1789056;80;20923;-35
2020/12/15 09:24:29;;;;;;;54.15;24.63;;;;;;;0.13;91.15;101475.09;1789081;80;20990;-36
2020/12/15 09:26:57;;;;;;;67.72;25.85;;;;;;;0.12;91.00;101469.11;1789054;80;20986;-37
2020/12/15 09:29:27;;;;;;;60.10;26.37;;;;;;;0.12;91.08;101477.14;1789190;80;22332;-37
2020/12/15 09:31:56;;;;;;;51.05;22.67;;;;;;;0.12;90.93;101471.66;1786525;80;21161;-37
2020/12/15 09:34:25;;;;;;;49.58;23.18;;;;;;;0.14;90.70;101471.73;1775568;80;21003;-36
2020/12/15 09:36:57;;;;;;;51.65;23.60;;;;;;;0.12;90.64;101470.38;1775488;80;21046;-35
2020/12/15 09:39:28;;;;;;;51.77;25.48;;;;;;;0.11;90.62;101463.94;1775546;80;21522;-36
2020/12/15 09:42:00;;;;;;;61.33;26.75;;;;;;;0.10;90.58;101469.84;1775515;80;21980;-36
2020/12/15 09:44:28;;;;;;;55.45;26.37;;;;;;;0.19;90.60;101473.17;1775173;80;21018;-37
2020/12/15 09:46:56;;;;;;;48.58;23.83;;;;;;;0.26;90.61;101468.39;1775070;80;20944;-37
2020/12/15 09:49:26;;;;;;;49.03;23.80;;;;;;;0.28;90.30;101464.23;1775024;80;20991;-38
2020/12/15 09:51:54;;;;;;;52.45;24.12;;;;;;;0.30;89.98;101464.69;1775099;80;21070;-37
2020/12/15 09:54:22;;;;;;;57.13;26.25;;;;;;;0.32;90.03;101465.62;1775065;80;21626;-36
2020/12/15 09:56:50;;;;;;;49.48;23.38;;;;;;;0.38;90.06;101464.58;1775048;80;20936;-37
2020/12/15 09:59:18;;;;;;;45.43;22.27;;;;;;;0.43;90.01;101468.20;1775042;80;20928;-37
2020/12/15 10:01:46;;;;;;;44.75;21.90;;;;;;;0.52;89.86;101464.73;1775029;80;20932;-36
2020/12/15 10:04:14;;;;;;;41.10;20.82;;;;;;;0.57;89.66;101464.50;1775141;80;20928;-36
2020/12/15 10:06:43;;;;;;;53.80;25.20;;;;;;;0.60;89.44;101459.05;1775120;80;21351;-36
2020/12/15 10:09:11;;;;;;;42.62;23.35;;;;;;;0.63;89.33;101462.60;1753116;80;20964;-37
2020/12/15 10:11:39;;;;;;;45.15;22.00;;;;;;;0.70;89.27;101449.70;1775115;80;21066;-36
2020/12/15 10:14:08;;;;;;;50.73;22.70;;;;;;;0.74;88.73;101454.48;1774994;80;21042;-36
2020/12/15 10:16:37;;;;;;;43.15;19.82;;;;;;;0.66;88.43;101456.77;1775137;80;20939;-36
2020/12/15 10:19:08;;;;;;;46.25;21.87;;;;;;;0.59;88.36;101454.77;1775033;80;21382;-36
2020/12/15 10:21:36;;;;;;;45.83;22.30;;;;;;;0.51;88.06;101457.90;1774995;80;21183;-34
2020/12/15 10:24:04;;;;;;;41.68;21.30;;;;;;;0.49;88.26;101457.36;1775129;80;21070;-36
2020/12/15 10:26:32;;;;;;;41.63;19.73;;;;;;;0.56;88.30;101465.73;1775109;80;20940;-38
2020/12/15 10:29:01;;;;;;;49.85;25.72;;;;;;;0.63;87.92;101451.52;1775010;80;20920;-36
2020/12/15 10:31:29;;;;;;;45.10;21.60;;;;;;;0.61;87.90;101459.52;1775187;80;22353;-36
2020/12/15 10:33:57;;;;;;;43.75;22.35;;;;;;;0.60;87.87;101457.78;1774875;80;21062;-36
2020/12/15 10:36:25;;;;;;;41.28;19.98;;;;;;;0.61;87.86;101462.06;1775045;80;20971;-36
2020/12/15 10:38:53;;;;;;;33.15;17.52;;;;;;;0.70;87.86;101453.52;1775012;80;20939;-36
2020/12/15 10:41:27;;;;;;;44.85;22.75;;;;;;;0.74;87.63;101455.38;1775089;80;20975;-36
2020/12/15 10:43:54;;;;;;;46.48;22.93;;;;;;;0.77;87.53;101459.73;1775119;80;22184;-36
2020/12/15 10:46:27;;;;;;;37.20;19.27;;;;;;;0.78;87.44;101458.49;1775016;80;20940;-36
2020/12/15 10:48:54;;;;;;;49.65;22.82;;;;;;;0.79;87.32;101457.68;1775022;80;20979;-35
2020/12/15 10:51:25;;;;;;;41.40;20.95;;;;;;;0.78;87.42;101452.55;1775071;80;20932;-38
2020/12/15 10:53:53;;;;;;;36.38;17.45;;;;;;;0.75;87.30;101458.77;1774981;80;20888;-37
2020/12/15 10:56:22;;;;;;;40.63;18.52;;;;;;;0.75;87.10;101452.40;1774961;80;21208;-36
2020/12/15 10:58:50;;;;;;;38.38;21.02;;;;;;;0.62;86.55;101448.13;1774943;80;21245;-37
2020/12/15 11:01:18;;;;;;;40.40;19.87;;;;;;;0.52;86.76;101455.81;1775101;80;20979;-37
2020/12/15 11:03:46;;;;;;;36.60;20.23;;;;;;;0.50;86.86;101458.71;1775003;80;20995;-37
2020/12/15 11:06:14;;;;;;;43.30;21.52;;;;;;;0.50;86.81;101459.98;1775057;80;20975;-37
2020/12/15 11:08:42;;;;;;;47.05;23.77;;;;;;;0.51;86.85;101454.08;1775019;80;21206;-36
2020/12/15 11:11:13;;;;;;;44.00;24.27;;;;;;;0.46;86.88;101453.03;1774999;80;20971;-37
2020/12/15 11:13:42;;;;;;;43.55;22.93;;;;;;;0.43;86.98;101452.50;1775018;80;20983;-36
2020/12/15 11:16:10;;;;;;;38.90;20.62;;;;;;;0.46;87.05;101449.60;1774993;80;21003;-38
2020/12/15 11:18:38;;;;;;;42.70;23.52;;;;;;;0.46;86.95;101449.22;1775116;80;21011;-36
2020/12/15 11:21:06;;;;;;;41.55;22.05;;;;;;;0.38;86.88;101451.84;1775024;80;21255;-37
2020/12/15 11:23:35;;;;;;;34.88;19.10;;;;;;;0.32;87.09;101446.52;1774989;80;21015;-36
2020/12/15 11:26:04;;;;;;;39.75;20.55;;;;;;;0.36;87.18;101443.27;1773670;80;21030;-35